sensor_id;sensor_type;location;lat;lon;timestamp;P1;durP1;ratioP1;P2;durP2;ratioP2
12869;SDS011;6503;48.572;13.460;2023-02-03T00:01:58;4.53;;;2.55;;
12869;SDS011;6503;48.572;13.460;2023-02-03T00:04:27;6.45;;;3.55;;
12869;SDS011;6503;48.572;13.460;2023-02-03T00:06:59;3.92;;;2.70;;
12869;SDS011;6503;48.572;13.460;2023-02-03T00:09:28;4.25;;;3.03;;
12869;SDS011;6503;48.572;13.460;2023-02-03T00:12:05;5.90;;;3.05;;
12869;SDS011;6503;48.572;13.460;2023-02-03T00:14:32;5.57;;;2.78;;
12869;SDS011;6503;48.572;13.460;2023-02-03T00:17:03;5.22;;;2.88;;
12869;SDS011;6503;48.572;13.460;2023-02-03T00:19:30;4.93;;;2.97;;
12869;SDS011;6503;48.572;13.460;2023-02-03T00:22:00;3.92;;;2.55;;
12869;SDS011;6503;48.572;13.460;2023-02-03T00:24:27;4.60;;;2.92;;
12869;SDS011;6503;48.572;13.460;2023-02-03T00:26:55;6.45;;;2.90;;
12869;SDS011;6503;48.572;13.460;2023-02-03T00:29:22;3.75;;;2.88;;
12869;SDS011;6503;48.572;13.460;2023-02-03T00:31:50;5.68;;;3.03;;
12869;SDS011;6503;48.572;13.460;2023-02-03T00:34:20;6.47;;;3.60;;
12869;SDS011;6503;48.572;13.460;2023-02-03T00:36:50;3.85;;;2.50;;
12869;SDS011;6503;48.572;13.460;2023-02-03T00:39:20;7.20;;;3.55;;
12869;SDS011;6503;48.572;13.460;2023-02-03T00:41:55;5.80;;;2.70;;
12869;SDS011;6503;48.572;13.460;2023-02-03T00:44:22;6.00;;;3.03;;
12869;SDS011;6503;48.572;13.460;2023-02-03T00:46:53;5.30;;;3.13;;
12869;SDS011;6503;48.572;13.460;2023-02-03T00:49:22;5.60;;;2.72;;
12869;SDS011;6503;48.572;13.460;2023-02-03T00:54:18;5.85;;;3.35;;
12869;SDS011;6503;48.572;13.460;2023-02-03T00:56:45;5.15;;;3.33;;
12869;SDS011;6503;48.572;13.460;2023-02-03T00:59:12;5.82;;;3.97;;
12869;SDS011;6503;48.572;13.460;2023-02-03T01:01:39;8.25;;;3.97;;
12869;SDS011;6503;48.572;13.460;2023-02-03T01:04:08;7.63;;;3.05;;
12869;SDS011;6503;48.572;13.460;2023-02-03T01:06:38;7.53;;;3.65;;
12869;SDS011;6503;48.572;13.460;2023-02-03T01:09:06;7.60;;;3.60;;
12869;SDS011;6503;48.572;13.460;2023-02-03T01:11:33;7.13;;;3.65;;
12869;SDS011;6503;48.572;13.460;2023-02-03T01:14:00;6.45;;;3.83;;
12869;SDS011;6503;48.572;13.460;2023-02-03T01:16:28;7.30;;;3.80;;
12869;SDS011;6503;48.572;13.460;2023-02-03T01:19:00;8.57;;;4.15;;
12869;SDS011;6503;48.572;13.460;2023-02-03T01:21:27;6.32;;;3.38;;
12869;SDS011;6503;48.572;13.460;2023-02-03T01:23:57;8.15;;;3.95;;
12869;SDS011;6503;48.572;13.460;2023-02-03T01:26:25;7.90;;;4.05;;
12869;SDS011;6503;48.572;13.460;2023-02-03T01:28:56;8.57;;;4.32;;
12869;SDS011;6503;48.572;13.460;2023-02-03T01:31:25;7.03;;;4.95;;
12869;SDS011;6503;48.572;13.460;2023-02-03T01:33:54;8.52;;;4.13;;
12869;SDS011;6503;48.572;13.460;2023-02-03T01:36:22;8.40;;;4.50;;
12869;SDS011;6503;48.572;13.460;2023-02-03T01:38:53;6.63;;;3.95;;
12869;SDS011;6503;48.572;13.460;2023-02-03T01:41:22;7.28;;;4.47;;
12869;SDS011;6503;48.572;13.460;2023-02-03T01:43:55;7.50;;;4.47;;
12869;SDS011;6503;48.572;13.460;2023-02-03T01:46:24;9.60;;;4.63;;
12869;SDS011;6503;48.572;13.460;2023-02-03T01:48:54;7.90;;;4.25;;
12869;SDS011;6503;48.572;13.460;2023-02-03T01:51:27;11.70;;;5.72;;
12869;SDS011;6503;48.572;13.460;2023-02-03T01:53:55;9.85;;;4.75;;
12869;SDS011;6503;48.572;13.460;2023-02-03T01:56:26;9.48;;;4.78;;
12869;SDS011;6503;48.572;13.460;2023-02-03T01:59:00;12.07;;;6.00;;
12869;SDS011;6503;48.572;13.460;2023-02-03T02:01:27;10.32;;;5.00;;
12869;SDS011;6503;48.572;13.460;2023-02-03T02:03:57;10.03;;;5.77;;
12869;SDS011;6503;48.572;13.460;2023-02-03T02:06:27;10.50;;;5.28;;
12869;SDS011;6503;48.572;13.460;2023-02-03T02:08:54;8.88;;;5.07;;
12869;SDS011;6503;48.572;13.460;2023-02-03T02:11:27;10.43;;;5.47;;
12869;SDS011;6503;48.572;13.460;2023-02-03T02:13:54;10.53;;;5.77;;
12869;SDS011;6503;48.572;13.460;2023-02-03T02:16:27;11.27;;;5.63;;
12869;SDS011;6503;48.572;13.460;2023-02-03T02:19:17;11.60;;;5.63;;
12869;SDS011;6503;48.572;13.460;2023-02-03T02:22:04;9.70;;;4.43;;
12869;SDS011;6503;48.572;13.460;2023-02-03T02:24:51;9.68;;;5.05;;
12869;SDS011;6503;48.572;13.460;2023-02-03T02:33:35;11.43;;;5.43;;
12869;SDS011;6503;48.572;13.460;2023-02-03T02:36:12;11.43;;;5.30;;
12869;SDS011;6503;48.572;13.460;2023-02-03T02:38:49;12.55;;;5.57;;
12869;SDS011;6503;48.572;13.460;2023-02-03T02:41:25;9.98;;;4.30;;
12869;SDS011;6503;48.572;13.460;2023-02-03T02:43:56;10.57;;;4.30;;
12869;SDS011;6503;48.572;13.460;2023-02-03T02:46:30;11.35;;;5.47;;
12869;SDS011;6503;48.572;13.460;2023-02-03T02:49:05;9.57;;;5.10;;
12869;SDS011;6503;48.572;13.460;2023-02-03T02:51:38;10.85;;;5.00;;
12869;SDS011;6503;48.572;13.460;2023-02-03T02:54:09;10.85;;;4.88;;
12869;SDS011;6503;48.572;13.460;2023-02-03T02:56:42;9.90;;;5.13;;
12869;SDS011;6503;48.572;13.460;2023-02-03T02:59:14;10.65;;;4.82;;
12869;SDS011;6503;48.572;13.460;2023-02-03T03:01:42;9.30;;;4.82;;
12869;SDS011;6503;48.572;13.460;2023-02-03T03:04:12;9.32;;;4.90;;
12869;SDS011;6503;48.572;13.460;2023-02-03T03:06:43;12.43;;;6.20;;
12869;SDS011;6503;48.572;13.460;2023-02-03T03:09:14;12.93;;;5.75;;
12869;SDS011;6503;48.572;13.460;2023-02-03T03:11:46;13.63;;;4.70;;
12869;SDS011;6503;48.572;13.460;2023-02-03T03:14:17;9.65;;;5.05;;
12869;SDS011;6503;48.572;13.460;2023-02-03T03:16:47;16.48;;;5.93;;
12869;SDS011;6503;48.572;13.460;2023-02-03T03:19:20;13.57;;;4.55;;
12869;SDS011;6503;48.572;13.460;2023-02-03T03:21:54;10.63;;;5.15;;
12869;SDS011;6503;48.572;13.460;2023-02-03T03:24:27;11.38;;;5.78;;
12869;SDS011;6503;48.572;13.460;2023-02-03T03:26:58;10.70;;;4.70;;
12869;SDS011;6503;48.572;13.460;2023-02-03T03:29:31;11.70;;;5.28;;
12869;SDS011;6503;48.572;13.460;2023-02-03T03:32:02;9.32;;;4.85;;
12869;SDS011;6503;48.572;13.460;2023-02-03T03:34:44;13.13;;;5.10;;
12869;SDS011;6503;48.572;13.460;2023-02-03T03:37:12;11.10;;;5.10;;
12869;SDS011;6503;48.572;13.460;2023-02-03T03:39:44;10.65;;;5.43;;
12869;SDS011;6503;48.572;13.460;2023-02-03T03:42:19;13.18;;;5.53;;
12869;SDS011;6503;48.572;13.460;2023-02-03T03:45:00;11.95;;;4.90;;
12869;SDS011;6503;48.572;13.460;2023-02-03T03:47:32;11.18;;;5.47;;
12869;SDS011;6503;48.572;13.460;2023-02-03T03:50:09;19.05;;;7.35;;
12869;SDS011;6503;48.572;13.460;2023-02-03T03:52:41;10.82;;;5.20;;
12869;SDS011;6503;48.572;13.460;2023-02-03T03:55:11;11.57;;;6.15;;
12869;SDS011;6503;48.572;13.460;2023-02-03T03:57:42;9.90;;;4.88;;
12869;SDS011;6503;48.572;13.460;2023-02-03T04:03:22;10.68;;;4.82;;
12869;SDS011;6503;48.572;13.460;2023-02-03T04:05:56;10.95;;;4.68;;
12869;SDS011;6503;48.572;13.460;2023-02-03T04:08:23;8.73;;;3.92;;
12869;SDS011;6503;48.572;13.460;2023-02-03T04:10:50;7.90;;;4.78;;
12869;SDS011;6503;48.572;13.460;2023-02-03T04:13:18;12.00;;;4.68;;
12869;SDS011;6503;48.572;13.460;2023-02-03T04:15:46;12.25;;;5.05;;
12869;SDS011;6503;48.572;13.460;2023-02-03T04:18:14;12.55;;;5.13;;
12869;SDS011;6503;48.572;13.460;2023-02-03T04:20:41;11.68;;;5.40;;
12869;SDS011;6503;48.572;13.460;2023-02-03T04:23:12;21.60;;;6.40;;
12869;SDS011;6503;48.572;13.460;2023-02-03T04:25:39;9.57;;;4.50;;
12869;SDS011;6503;48.572;13.460;2023-02-03T04:28:07;9.95;;;4.50;;
12869;SDS011;6503;48.572;13.460;2023-02-03T04:30:35;11.98;;;5.30;;
12869;SDS011;6503;48.572;13.460;2023-02-03T04:33:04;9.23;;;4.65;;
12869;SDS011;6503;48.572;13.460;2023-02-03T04:35:32;8.88;;;4.53;;
12869;SDS011;6503;48.572;13.460;2023-02-03T04:38:01;10.63;;;5.35;;
12869;SDS011;6503;48.572;13.460;2023-02-03T04:40:32;7.97;;;4.63;;
12869;SDS011;6503;48.572;13.460;2023-02-03T04:43:04;11.10;;;5.13;;
12869;SDS011;6503;48.572;13.460;2023-02-03T04:45:41;8.30;;;4.18;;
12869;SDS011;6503;48.572;13.460;2023-02-03T04:48:10;10.15;;;5.00;;
12869;SDS011;6503;48.572;13.460;2023-02-03T04:50:44;8.90;;;3.95;;
12869;SDS011;6503;48.572;13.460;2023-02-03T04:53:12;11.10;;;4.47;;
12869;SDS011;6503;48.572;13.460;2023-02-03T04:59:11;11.02;;;4.88;;
12869;SDS011;6503;48.572;13.460;2023-02-03T05:01:40;11.23;;;5.68;;
12869;SDS011;6503;48.572;13.460;2023-02-03T05:04:08;12.07;;;4.80;;
12869;SDS011;6503;48.572;13.460;2023-02-03T05:06:36;15.05;;;5.50;;
12869;SDS011;6503;48.572;13.460;2023-02-03T05:09:03;8.10;;;4.80;;
12869;SDS011;6503;48.572;13.460;2023-02-03T05:11:31;8.68;;;4.47;;
12869;SDS011;6503;48.572;13.460;2023-02-03T05:13:59;12.98;;;5.95;;
12869;SDS011;6503;48.572;13.460;2023-02-03T05:16:27;11.65;;;5.28;;
12869;SDS011;6503;48.572;13.460;2023-02-03T05:18:54;7.82;;;3.78;;
12869;SDS011;6503;48.572;13.460;2023-02-03T05:21:21;11.32;;;4.40;;
12869;SDS011;6503;48.572;13.460;2023-02-03T05:23:49;11.93;;;5.60;;
12869;SDS011;6503;48.572;13.460;2023-02-03T05:26:18;10.05;;;4.45;;
12869;SDS011;6503;48.572;13.460;2023-02-03T05:28:46;9.65;;;4.82;;
12869;SDS011;6503;48.572;13.460;2023-02-03T05:31:14;11.50;;;5.63;;
12869;SDS011;6503;48.572;13.460;2023-02-03T05:34:16;12.32;;;5.85;;
12869;SDS011;6503;48.572;13.460;2023-02-03T05:36:45;11.95;;;5.05;;
12869;SDS011;6503;48.572;13.460;2023-02-03T05:39:12;11.38;;;5.03;;
12869;SDS011;6503;48.572;13.460;2023-02-03T05:41:42;10.75;;;5.00;;
12869;SDS011;6503;48.572;13.460;2023-02-03T05:44:17;8.70;;;4.72;;
12869;SDS011;6503;48.572;13.460;2023-02-03T05:46:47;8.75;;;3.72;;
12869;SDS011;6503;48.572;13.460;2023-02-03T05:49:26;8.15;;;3.92;;
12869;SDS011;6503;48.572;13.460;2023-02-03T05:52:01;10.30;;;5.40;;
12869;SDS011;6503;48.572;13.460;2023-02-03T05:54:29;13.13;;;5.05;;
12869;SDS011;6503;48.572;13.460;2023-02-03T05:56:56;9.82;;;4.85;;
12869;SDS011;6503;48.572;13.460;2023-02-03T05:59:26;9.13;;;4.07;;
12869;SDS011;6503;48.572;13.460;2023-02-03T06:01:53;10.52;;;4.60;;
12869;SDS011;6503;48.572;13.460;2023-02-03T06:04:20;16.02;;;4.47;;
12869;SDS011;6503;48.572;13.460;2023-02-03T06:06:49;13.68;;;4.45;;
12869;SDS011;6503;48.572;13.460;2023-02-03T06:09:20;5.35;;;2.97;;
12869;SDS011;6503;48.572;13.460;2023-02-03T06:11:48;5.75;;;2.28;;
12869;SDS011;6503;48.572;13.460;2023-02-03T06:14:22;6.35;;;2.83;;
12869;SDS011;6503;48.572;13.460;2023-02-03T06:16:50;7.07;;;2.90;;
12869;SDS011;6503;48.572;13.460;2023-02-03T06:19:17;4.50;;;2.60;;
12869;SDS011;6503;48.572;13.460;2023-02-03T06:21:45;3.88;;;2.97;;
12869;SDS011;6503;48.572;13.460;2023-02-03T06:24:16;7.00;;;2.65;;
12869;SDS011;6503;48.572;13.460;2023-02-03T06:26:43;3.40;;;2.50;;
12869;SDS011;6503;48.572;13.460;2023-02-03T06:29:10;5.25;;;2.22;;
12869;SDS011;6503;48.572;13.460;2023-02-03T06:31:38;4.05;;;2.38;;
12869;SDS011;6503;48.572;13.460;2023-02-03T06:34:05;8.77;;;2.85;;
12869;SDS011;6503;48.572;13.460;2023-02-03T06:36:33;8.85;;;2.95;;
12869;SDS011;6503;48.572;13.460;2023-02-03T06:39:01;10.30;;;5.65;;
12869;SDS011;6503;48.572;13.460;2023-02-03T06:41:32;6.00;;;2.27;;
12869;SDS011;6503;48.572;13.460;2023-02-03T06:43:59;4.00;;;2.05;;
12869;SDS011;6503;48.572;13.460;2023-02-03T06:46:30;4.80;;;2.03;;
12869;SDS011;6503;48.572;13.460;2023-02-03T06:48:58;2.20;;;1.60;;
12869;SDS011;6503;48.572;13.460;2023-02-03T06:51:29;7.85;;;2.55;;
12869;SDS011;6503;48.572;13.460;2023-02-03T06:53:56;3.53;;;1.77;;
12869;SDS011;6503;48.572;13.460;2023-02-03T06:56:24;2.78;;;1.92;;
12869;SDS011;6503;48.572;13.460;2023-02-03T06:58:58;6.85;;;2.20;;
12869;SDS011;6503;48.572;13.460;2023-02-03T07:01:25;4.68;;;2.03;;
12869;SDS011;6503;48.572;13.460;2023-02-03T07:03:53;11.57;;;4.20;;
12869;SDS011;6503;48.572;13.460;2023-02-03T07:06:23;2.47;;;1.88;;
12869;SDS011;6503;48.572;13.460;2023-02-03T07:08:56;2.75;;;1.60;;
12869;SDS011;6503;48.572;13.460;2023-02-03T07:11:25;5.70;;;2.15;;
12869;SDS011;6503;48.572;13.460;2023-02-03T07:13:52;4.85;;;2.17;;
12869;SDS011;6503;48.572;13.460;2023-02-03T07:16:25;3.45;;;2.08;;
12869;SDS011;6503;48.572;13.460;2023-02-03T07:19:07;4.38;;;1.98;;
12869;SDS011;6503;48.572;13.460;2023-02-03T07:21:37;2.50;;;1.92;;
12869;SDS011;6503;48.572;13.460;2023-02-03T07:24:05;3.03;;;2.03;;
12869;SDS011;6503;48.572;13.460;2023-02-03T07:26:32;3.85;;;2.33;;
12869;SDS011;6503;48.572;13.460;2023-02-03T07:29:10;3.38;;;2.00;;
12869;SDS011;6503;48.572;13.460;2023-02-03T07:31:42;5.47;;;2.10;;
12869;SDS011;6503;48.572;13.460;2023-02-03T07:34:10;3.10;;;2.00;;
12869;SDS011;6503;48.572;13.460;2023-02-03T07:36:39;4.78;;;2.03;;
12869;SDS011;6503;48.572;13.460;2023-02-03T07:39:10;4.22;;;1.40;;
12869;SDS011;6503;48.572;13.460;2023-02-03T07:41:38;2.90;;;1.40;;
12869;SDS011;6503;48.572;13.460;2023-02-03T07:44:06;3.00;;;1.70;;
12869;SDS011;6503;48.572;13.460;2023-02-03T07:46:35;2.33;;;1.25;;
12869;SDS011;6503;48.572;13.460;2023-02-03T07:49:18;1.90;;;1.30;;
12869;SDS011;6503;48.572;13.460;2023-02-03T07:51:46;1.35;;;1.10;;
12869;SDS011;6503;48.572;13.460;2023-02-03T07:54:16;3.53;;;1.52;;
12869;SDS011;6503;48.572;13.460;2023-02-03T07:56:44;4.47;;;1.50;;
12869;SDS011;6503;48.572;13.460;2023-02-03T07:59:13;1.75;;;1.25;;
12869;SDS011;6503;48.572;13.460;2023-02-03T08:01:45;1.70;;;1.17;;
12869;SDS011;6503;48.572;13.460;2023-02-03T08:04:12;4.07;;;1.50;;
12869;SDS011;6503;48.572;13.460;2023-02-03T08:10:12;6.63;;;2.35;;
12869;SDS011;6503;48.572;13.460;2023-02-03T08:12:42;2.33;;;1.63;;
12869;SDS011;6503;48.572;13.460;2023-02-03T08:15:11;5.22;;;1.67;;
12869;SDS011;6503;48.572;13.460;2023-02-03T08:17:41;2.10;;;1.40;;
12869;SDS011;6503;48.572;13.460;2023-02-03T08:20:09;6.47;;;1.55;;
12869;SDS011;6503;48.572;13.460;2023-02-03T08:22:44;1.85;;;1.30;;
12869;SDS011;6503;48.572;13.460;2023-02-03T08:25:15;5.68;;;1.65;;
12869;SDS011;6503;48.572;13.460;2023-02-03T08:27:42;2.63;;;1.80;;
12869;SDS011;6503;48.572;13.460;2023-02-03T08:30:10;3.80;;;1.65;;
12869;SDS011;6503;48.572;13.460;2023-02-03T08:32:41;2.45;;;1.67;;
12869;SDS011;6503;48.572;13.460;2023-02-03T08:35:09;3.42;;;1.73;;
12869;SDS011;6503;48.572;13.460;2023-02-03T08:37:48;3.28;;;2.13;;
12869;SDS011;6503;48.572;13.460;2023-02-03T08:40:19;2.85;;;1.70;;
12869;SDS011;6503;48.572;13.460;2023-02-03T08:42:54;5.90;;;1.95;;
12869;SDS011;6503;48.572;13.460;2023-02-03T08:45:22;4.25;;;1.63;;
12869;SDS011;6503;48.572;13.460;2023-02-03T08:51:08;3.80;;;1.60;;
12869;SDS011;6503;48.572;13.460;2023-02-03T08:53:48;5.40;;;1.40;;
12869;SDS011;6503;48.572;13.460;2023-02-03T08:56:21;3.92;;;1.65;;
12869;SDS011;6503;48.572;13.460;2023-02-03T08:58:50;3.92;;;1.70;;
12869;SDS011;6503;48.572;13.460;2023-02-03T09:01:17;3.50;;;1.70;;
12869;SDS011;6503;48.572;13.460;2023-02-03T09:03:48;3.38;;;1.55;;
12869;SDS011;6503;48.572;13.460;2023-02-03T09:06:19;2.17;;;1.33;;
12869;SDS011;6503;48.572;13.460;2023-02-03T09:08:47;3.78;;;1.60;;
12869;SDS011;6503;48.572;13.460;2023-02-03T09:11:20;3.33;;;1.50;;
12869;SDS011;6503;48.572;13.460;2023-02-03T09:13:48;2.70;;;1.30;;
12869;SDS011;6503;48.572;13.460;2023-02-03T09:16:35;2.88;;;1.50;;
12869;SDS011;6503;48.572;13.460;2023-02-03T09:19:04;4.38;;;1.25;;
12869;SDS011;6503;48.572;13.460;2023-02-03T09:21:31;4.05;;;1.50;;
12869;SDS011;6503;48.572;13.460;2023-02-03T09:23:59;5.72;;;1.58;;
12869;SDS011;6503;48.572;13.460;2023-02-03T09:26:28;4.13;;;1.75;;
12869;SDS011;6503;48.572;13.460;2023-02-03T09:28:56;3.17;;;1.42;;
12869;SDS011;6503;48.572;13.460;2023-02-03T09:31:23;4.50;;;1.83;;
12869;SDS011;6503;48.572;13.460;2023-02-03T09:33:50;2.80;;;1.67;;
12869;SDS011;6503;48.572;13.460;2023-02-03T09:36:18;4.28;;;1.85;;
12869;SDS011;6503;48.572;13.460;2023-02-03T09:38:45;2.50;;;1.30;;
12869;SDS011;6503;48.572;13.460;2023-02-03T09:41:15;5.15;;;1.40;;
12869;SDS011;6503;48.572;13.460;2023-02-03T09:43:57;2.65;;;1.30;;
12869;SDS011;6503;48.572;13.460;2023-02-03T09:46:31;2.78;;;1.38;;
12869;SDS011;6503;48.572;13.460;2023-02-03T09:49:02;4.50;;;2.47;;
12869;SDS011;6503;48.572;13.460;2023-02-03T09:51:35;4.18;;;1.83;;
12869;SDS011;6503;48.572;13.460;2023-02-03T09:54:12;4.03;;;1.70;;
12869;SDS011;6503;48.572;13.460;2023-02-03T09:56:44;2.60;;;1.52;;
12869;SDS011;6503;48.572;13.460;2023-02-03T09:59:19;2.42;;;1.58;;
12869;SDS011;6503;48.572;13.460;2023-02-03T10:01:49;4.18;;;1.45;;
12869;SDS011;6503;48.572;13.460;2023-02-03T10:04:25;2.42;;;1.35;;
12869;SDS011;6503;48.572;13.460;2023-02-03T10:07:01;3.00;;;1.50;;
12869;SDS011;6503;48.572;13.460;2023-02-03T10:09:48;2.25;;;1.38;;
12869;SDS011;6503;48.572;13.460;2023-02-03T10:12:24;2.22;;;1.60;;
12869;SDS011;6503;48.572;13.460;2023-02-03T10:15:19;1.75;;;1.45;;
12869;SDS011;6503;48.572;13.460;2023-02-03T10:18:13;2.58;;;1.55;;
12869;SDS011;6503;48.572;13.460;2023-02-03T10:20:47;2.30;;;1.33;;
12869;SDS011;6503;48.572;13.460;2023-02-03T10:23:17;2.08;;;1.40;;
12869;SDS011;6503;48.572;13.460;2023-02-03T10:25:48;4.15;;;1.38;;
12869;SDS011;6503;48.572;13.460;2023-02-03T10:28:21;4.20;;;1.40;;
12869;SDS011;6503;48.572;13.460;2023-02-03T10:30:53;4.18;;;1.60;;
12869;SDS011;6503;48.572;13.460;2023-02-03T10:33:24;3.05;;;1.60;;
12869;SDS011;6503;48.572;13.460;2023-02-03T10:35:52;3.63;;;1.33;;
12869;SDS011;6503;48.572;13.460;2023-02-03T10:38:32;4.10;;;1.30;;
12869;SDS011;6503;48.572;13.460;2023-02-03T10:41:08;2.28;;;1.30;;
12869;SDS011;6503;48.572;13.460;2023-02-03T10:43:36;2.08;;;1.27;;
12869;SDS011;6503;48.572;13.460;2023-02-03T10:46:19;3.75;;;1.38;;
12869;SDS011;6503;48.572;13.460;2023-02-03T10:48:51;2.53;;;1.25;;
12869;SDS011;6503;48.572;13.460;2023-02-03T10:51:20;4.22;;;1.67;;
12869;SDS011;6503;48.572;13.460;2023-02-03T10:53:49;3.63;;;1.40;;
12869;SDS011;6503;48.572;13.460;2023-02-03T10:56:18;2.53;;;1.35;;
12869;SDS011;6503;48.572;13.460;2023-02-03T10:58:51;1.90;;;1.40;;
12869;SDS011;6503;48.572;13.460;2023-02-03T11:01:23;2.47;;;1.17;;
12869;SDS011;6503;48.572;13.460;2023-02-03T11:03:53;4.20;;;1.30;;
12869;SDS011;6503;48.572;13.460;2023-02-03T11:06:26;2.00;;;1.38;;
12869;SDS011;6503;48.572;13.460;2023-02-03T11:08:54;3.60;;;1.40;;
12869;SDS011;6503;48.572;13.460;2023-02-03T11:11:22;2.20;;;1.30;;
12869;SDS011;6503;48.572;13.460;2023-02-03T11:16:19;3.03;;;1.35;;
12869;SDS011;6503;48.572;13.460;2023-02-03T11:18:54;3.53;;;1.50;;
12869;SDS011;6503;48.572;13.460;2023-02-03T11:21:24;1.63;;;1.30;;
12869;SDS011;6503;48.572;13.460;2023-02-03T11:23:55;2.70;;;1.75;;
12869;SDS011;6503;48.572;13.460;2023-02-03T11:26:28;3.08;;;1.50;;
12869;SDS011;6503;48.572;13.460;2023-02-03T11:28:58;3.63;;;1.52;;
12869;SDS011;6503;48.572;13.460;2023-02-03T11:31:27;2.20;;;1.25;;
12869;SDS011;6503;48.572;13.460;2023-02-03T11:34:01;2.78;;;1.40;;
12869;SDS011;6503;48.572;13.460;2023-02-03T11:36:31;2.65;;;1.30;;
12869;SDS011;6503;48.572;13.460;2023-02-03T11:41:49;3.03;;;1.20;;
12869;SDS011;6503;48.572;13.460;2023-02-03T11:44:17;1.70;;;1.20;;
12869;SDS011;6503;48.572;13.460;2023-02-03T11:46:47;1.63;;;1.40;;
12869;SDS011;6503;48.572;13.460;2023-02-03T11:49:23;2.05;;;0.80;;
12869;SDS011;6503;48.572;13.460;2023-02-03T11:52:17;1.80;;;1.05;;
12869;SDS011;6503;48.572;13.460;2023-02-03T11:54:58;3.10;;;1.50;;
12869;SDS011;6503;48.572;13.460;2023-02-03T11:57:37;3.35;;;1.23;;
12869;SDS011;6503;48.572;13.460;2023-02-03T12:00:16;1.90;;;1.02;;
12869;SDS011;6503;48.572;13.460;2023-02-03T12:09:02;2.67;;;1.20;;
12869;SDS011;6503;48.572;13.460;2023-02-03T12:11:39;4.20;;;1.73;;
12869;SDS011;6503;48.572;13.460;2023-02-03T12:14:22;1.83;;;1.10;;
12869;SDS011;6503;48.572;13.460;2023-02-03T12:17:07;3.00;;;0.90;;
12869;SDS011;6503;48.572;13.460;2023-02-03T12:20:01;1.45;;;1.10;;
12869;SDS011;6503;48.572;13.460;2023-02-03T12:22:47;2.45;;;1.45;;
12869;SDS011;6503;48.572;13.460;2023-02-03T12:25:26;2.42;;;1.15;;
12869;SDS011;6503;48.572;13.460;2023-02-03T12:28:04;8.27;;;5.20;;
12869;SDS011;6503;48.572;13.460;2023-02-03T12:30:41;1.40;;;1.00;;
12869;SDS011;6503;48.572;13.460;2023-02-03T12:33:14;2.65;;;1.20;;
12869;SDS011;6503;48.572;13.460;2023-02-03T12:35:47;2.58;;;1.10;;
12869;SDS011;6503;48.572;13.460;2023-02-03T12:38:21;4.00;;;1.23;;
12869;SDS011;6503;48.572;13.460;2023-02-03T12:40:56;2.30;;;1.20;;
12869;SDS011;6503;48.572;13.460;2023-02-03T12:46:05;3.35;;;1.42;;
12869;SDS011;6503;48.572;13.460;2023-02-03T12:48:47;2.58;;;1.15;;
12869;SDS011;6503;48.572;13.460;2023-02-03T12:51:22;2.17;;;1.50;;
12869;SDS011;6503;48.572;13.460;2023-02-03T12:54:02;2.63;;;1.23;;
12869;SDS011;6503;48.572;13.460;2023-02-03T12:56:36;1.88;;;1.15;;
12869;SDS011;6503;48.572;13.460;2023-02-03T12:59:08;3.00;;;1.40;;
12869;SDS011;6503;48.572;13.460;2023-02-03T13:01:42;2.60;;;1.40;;
12869;SDS011;6503;48.572;13.460;2023-02-03T13:04:14;3.50;;;1.00;;
12869;SDS011;6503;48.572;13.460;2023-02-03T13:06:51;2.45;;;1.30;;
12869;SDS011;6503;48.572;13.460;2023-02-03T13:09:30;3.58;;;1.35;;
12869;SDS011;6503;48.572;13.460;2023-02-03T13:12:04;2.15;;;1.25;;
12869;SDS011;6503;48.572;13.460;2023-02-03T13:14:37;2.20;;;1.02;;
12869;SDS011;6503;48.572;13.460;2023-02-03T13:17:11;2.05;;;1.23;;
12869;SDS011;6503;48.572;13.460;2023-02-03T13:19:43;1.33;;;0.88;;
12869;SDS011;6503;48.572;13.460;2023-02-03T13:22:20;2.35;;;1.58;;
12869;SDS011;6503;48.572;13.460;2023-02-03T13:24:51;3.22;;;1.15;;
12869;SDS011;6503;48.572;13.460;2023-02-03T13:27:33;5.05;;;1.20;;
12869;SDS011;6503;48.572;13.460;2023-02-03T13:30:16;4.82;;;1.70;;
12869;SDS011;6503;48.572;13.460;2023-02-03T13:33:03;1.58;;;1.20;;
12869;SDS011;6503;48.572;13.460;2023-02-03T13:35:51;1.65;;;1.10;;
12869;SDS011;6503;48.572;13.460;2023-02-03T13:38:40;2.95;;;1.42;;
12869;SDS011;6503;48.572;13.460;2023-02-03T13:41:24;2.10;;;1.25;;
12869;SDS011;6503;48.572;13.460;2023-02-03T13:43:57;2.13;;;1.27;;
12869;SDS011;6503;48.572;13.460;2023-02-03T13:46:26;3.15;;;1.35;;
12869;SDS011;6503;48.572;13.460;2023-02-03T13:48:56;1.98;;;1.02;;
12869;SDS011;6503;48.572;13.460;2023-02-03T13:51:27;2.30;;;1.20;;
12869;SDS011;6503;48.572;13.460;2023-02-03T13:53:59;1.70;;;1.02;;
12869;SDS011;6503;48.572;13.460;2023-02-03T13:56:31;1.60;;;1.00;;
12869;SDS011;6503;48.572;13.460;2023-02-03T13:59:00;2.10;;;1.00;;
12869;SDS011;6503;48.572;13.460;2023-02-03T14:01:33;2.55;;;1.30;;
12869;SDS011;6503;48.572;13.460;2023-02-03T14:04:03;3.28;;;0.90;;
12869;SDS011;6503;48.572;13.460;2023-02-03T14:12:33;1.55;;;1.27;;
12869;SDS011;6503;48.572;13.460;2023-02-03T14:17:58;2.10;;;1.00;;
12869;SDS011;6503;48.572;13.460;2023-02-03T14:23:27;2.53;;;1.13;;
12869;SDS011;6503;48.572;13.460;2023-02-03T14:26:13;3.30;;;1.20;;
12869;SDS011;6503;48.572;13.460;2023-02-03T14:28:45;1.77;;;1.15;;
12869;SDS011;6503;48.572;13.460;2023-02-03T14:31:16;3.05;;;1.33;;
12869;SDS011;6503;48.572;13.460;2023-02-03T14:36:49;2.53;;;0.93;;
12869;SDS011;6503;48.572;13.460;2023-02-03T14:39:25;2.00;;;1.00;;
12869;SDS011;6503;48.572;13.460;2023-02-03T14:42:21;2.38;;;1.20;;
12869;SDS011;6503;48.572;13.460;2023-02-03T14:45:09;1.67;;;1.00;;
12869;SDS011;6503;48.572;13.460;2023-02-03T14:47:47;1.25;;;0.85;;
12869;SDS011;6503;48.572;13.460;2023-02-03T14:50:24;2.50;;;1.00;;
12869;SDS011;6503;48.572;13.460;2023-02-03T14:53:02;3.15;;;0.90;;
12869;SDS011;6503;48.572;13.460;2023-02-03T14:55:55;2.20;;;0.95;;
12869;SDS011;6503;48.572;13.460;2023-02-03T14:58:30;1.55;;;0.93;;
12869;SDS011;6503;48.572;13.460;2023-02-03T15:01:03;1.73;;;0.80;;
12869;SDS011;6503;48.572;13.460;2023-02-03T15:03:32;2.88;;;1.00;;
12869;SDS011;6503;48.572;13.460;2023-02-03T15:06:02;1.67;;;0.80;;
12869;SDS011;6503;48.572;13.460;2023-02-03T15:08:38;1.15;;;0.90;;
12869;SDS011;6503;48.572;13.460;2023-02-03T15:14:13;3.40;;;0.90;;
12869;SDS011;6503;48.572;13.460;2023-02-03T15:16:46;1.65;;;0.90;;
12869;SDS011;6503;48.572;13.460;2023-02-03T15:19:17;1.63;;;1.08;;
12869;SDS011;6503;48.572;13.460;2023-02-03T15:21:49;10.18;;;6.50;;
12869;SDS011;6503;48.572;13.460;2023-02-03T15:24:16;5.10;;;3.33;;
12869;SDS011;6503;48.572;13.460;2023-02-03T15:26:48;1.67;;;1.27;;
12869;SDS011;6503;48.572;13.460;2023-02-03T15:29:18;2.58;;;0.85;;
12869;SDS011;6503;48.572;13.460;2023-02-03T15:31:53;3.63;;;1.88;;
12869;SDS011;6503;48.572;13.460;2023-02-03T15:34:31;1.70;;;0.80;;
12869;SDS011;6503;48.572;13.460;2023-02-03T15:37:03;2.38;;;0.98;;
12869;SDS011;6503;48.572;13.460;2023-02-03T15:39:36;1.33;;;1.02;;
12869;SDS011;6503;48.572;13.460;2023-02-03T15:42:13;2.17;;;1.00;;
12869;SDS011;6503;48.572;13.460;2023-02-03T15:44:47;1.73;;;1.42;;
12869;SDS011;6503;48.572;13.460;2023-02-03T15:47:22;2.58;;;1.35;;
12869;SDS011;6503;48.572;13.460;2023-02-03T15:49:58;3.30;;;1.45;;
12869;SDS011;6503;48.572;13.460;2023-02-03T15:52:32;2.40;;;0.98;;
12869;SDS011;6503;48.572;13.460;2023-02-03T15:55:07;1.85;;;1.00;;
12869;SDS011;6503;48.572;13.460;2023-02-03T15:57:41;1.35;;;0.90;;
12869;SDS011;6503;48.572;13.460;2023-02-03T16:00:22;1.50;;;1.00;;
12869;SDS011;6503;48.572;13.460;2023-02-03T16:03:13;1.90;;;1.23;;
12869;SDS011;6503;48.572;13.460;2023-02-03T16:05:45;2.22;;;1.00;;
12869;SDS011;6503;48.572;13.460;2023-02-03T16:11:23;2.13;;;1.33;;
12869;SDS011;6503;48.572;13.460;2023-02-03T16:13:53;4.43;;;1.77;;